Detall de PIREP

Printer-friendly versionPDF version

[2012/11/24 16:34:00]
Flight IATA:CT0001
Pilot Number:044
Company ICAO:CAT
Aircraft Type:BE20/A
PAX:4
Departing Airport: LEMH
Destination Airport: LERS
Alternate Airport:LEBL
Online: VATSIM
Route:LUNIK A25 BCN
Flight Level:F180
No Slew and time accel
No pause
Crash detect
Detect pilot in Cockpit between each 30 and 45 minutes
16:34 Zero fuel Weight: 9377 Lbs, Fuel Weight: 1265 Lbs
16:34 VATSIM:LEMH 241530Z 16009KT 9999 FEW013 SCT020 18/15 Q1019
16:34 VATSIM:LERS 241530Z 20003KT 170V230 9999 SCT018 15/12 Q1019
16:34 VOICE CATALONIAN
16:34 Parking Brakes off
16:39 Take-off
16:39 Take off Weight: 10621 Lbs
16:39 Wind: 161º @ 009 Knots Heading: 186º
16:39 POS N39º 51´ 40´´ E004º 13´ 06´´
16:39 Gear Up: 130 Knots
16:39 Flaps:1 at 130 Knots
16:39 Flaps:0 at 135 Knots
16:53 TOC
16:53 Fuel Weight: 1044 Lb
16:54 Wind:171º@021 Knots Heading: 308º Ground Speed: 247 Knots Altitude 18024 ft
17:01 TOD
17:01 Fuel Weight: 940 Lb
17:09 Wind:228º@020 Knots Heading: 304º Ground Speed: 237 Knots Altitude 11387 ft
17:24 Wind:214º@008 Knots Heading: 204º Ground Speed: 213 Knots Altitude 4967 ft
17:29 Flaps:1 at 169 Knots
17:29 Gear Down: 158 Knots
17:29 TouchDown:Rate -424 ft/min Speed: 134 Knots
17:30 VATSIM:LERS 241630Z 21003KT 9999 SCT018 13/12 Q1019
17:30 Land
17:30 Wind:213º@003 Knots
17:30 Heading: 251º
17:30 Flight Duration: 00:51
17:30 Landing Weight: 10122 Lbs
17:30 POS N41º 08´ 44´´ E001º 09´ 40´´
17:32 Parking brakes on
17:32 Block to Block Duration: 00:59
17:32 Final Fuel: 734 Lbls
17:32 Spent Fuel: 531 Lbls
17:32 Flight Length: 190 NM
17:32 TOD Land Length: 101 NM

Exportar CSV

Powered by Drupal - Modified by Danger4k